createdAt,value
2023-05-14T00:00:22.728Z,16.83
2023-05-14T00:02:49.749Z,16.90
2023-05-14T00:05:16.573Z,17.20
2023-05-14T00:07:43.235Z,17.43
2023-05-14T00:10:10.228Z,17.55
2023-05-14T00:12:36.801Z,17.30
2023-05-14T00:15:03.381Z,17.55
2023-05-14T00:17:30.032Z,18.05
2023-05-14T00:19:56.847Z,18.53
2023-05-14T00:22:23.503Z,17.98
2023-05-14T00:24:50.125Z,17.83
2023-05-14T00:27:16.840Z,17.80
2023-05-14T00:29:43.317Z,18.58
2023-05-14T00:32:09.816Z,17.60
2023-05-14T00:34:36.311Z,17.83
2023-05-14T00:37:02.802Z,17.48
2023-05-14T00:39:29.387Z,17.95
2023-05-14T00:41:56.181Z,17.67
2023-05-14T00:44:22.799Z,17.70
2023-05-14T00:46:49.467Z,18.13
2023-05-14T00:49:16.544Z,17.60
2023-05-14T00:51:43.290Z,17.05
2023-05-14T00:54:09.807Z,18.73
2023-05-14T00:56:36.403Z,17.17
2023-05-14T00:59:02.841Z,17.83
2023-05-14T01:01:29.635Z,17.25
2023-05-14T01:03:56.449Z,16.52
2023-05-14T01:06:59.048Z,16.85
2023-05-14T01:09:46.765Z,16.60
2023-05-14T01:12:25.200Z,16.42
2023-05-14T01:15:07.234Z,16.02
2023-05-14T01:17:46.310Z,16.02
2023-05-14T01:20:12.819Z,16.38
2023-05-14T01:22:39.365Z,15.77
2023-05-14T01:25:06.824Z,15.35
2023-05-14T01:27:43.615Z,15.55
2023-05-14T01:30:19.478Z,16.40
2023-05-14T01:32:51.069Z,15.27
2023-05-14T01:35:18.807Z,15.93
2023-05-14T01:37:47.105Z,15.57
2023-05-14T01:40:13.706Z,14.75
2023-05-14T01:42:41.133Z,15.38
2023-05-14T01:45:08.588Z,14.75
2023-05-14T01:47:35.110Z,15.17
2023-05-14T01:50:01.535Z,14.70
2023-05-14T01:52:27.947Z,15.57
2023-05-14T01:54:54.477Z,14.25
2023-05-14T01:57:20.867Z,15.43
2023-05-14T01:59:47.301Z,14.80
2023-05-14T02:02:13.733Z,14.52
2023-05-14T02:04:40.161Z,14.00
2023-05-14T02:07:06.604Z,14.30
2023-05-14T02:09:33.078Z,14.98
2023-05-14T02:11:59.541Z,15.07
2023-05-14T02:14:25.952Z,14.60
2023-05-14T02:16:52.477Z,15.45
2023-05-14T02:19:18.933Z,14.85
2023-05-14T02:21:45.410Z,15.85
2023-05-14T02:24:11.852Z,14.67
2023-05-14T02:26:38.289Z,14.88
2023-05-14T02:29:04.688Z,15.13
2023-05-14T02:31:31.123Z,15.07
2023-05-14T02:33:57.646Z,14.63
2023-05-14T02:36:24.090Z,14.00
2023-05-14T02:38:50.527Z,14.65
2023-05-14T02:41:16.947Z,14.32
2023-05-14T02:43:43.422Z,14.15
2023-05-14T02:46:09.909Z,14.55
2023-05-14T02:48:36.341Z,13.80
2023-05-14T02:51:02.863Z,13.80
2023-05-14T02:53:29.354Z,14.25
2023-05-14T02:55:55.858Z,14.23
2023-05-14T02:58:26.447Z,14.48
2023-05-14T03:00:55.388Z,13.93
2023-05-14T03:03:22.449Z,14.07
2023-05-14T03:05:49.438Z,14.20
2023-05-14T03:08:15.844Z,13.57
2023-05-14T03:10:42.254Z,13.80
2023-05-14T03:13:08.710Z,14.13
2023-05-14T03:15:35.124Z,14.63
2023-05-14T03:18:01.693Z,14.90
2023-05-14T03:20:28.290Z,14.15
2023-05-14T03:22:54.964Z,14.30
2023-05-14T03:25:21.571Z,14.70
2023-05-14T03:27:48.050Z,14.85
2023-05-14T03:30:14.503Z,14.23
2023-05-14T03:32:40.965Z,14.20
2023-05-14T03:35:07.905Z,14.10
2023-05-14T03:37:34.330Z,14.60
2023-05-14T03:40:00.771Z,15.23
2023-05-14T03:42:27.260Z,14.93
2023-05-14T03:44:53.723Z,15.75
2023-05-14T03:47:20.318Z,15.48
2023-05-14T03:49:46.860Z,15.67
2023-05-14T03:52:13.298Z,15.15
2023-05-14T03:54:39.695Z,19.13
2023-05-14T03:57:06.108Z,15.63
2023-05-14T03:59:32.601Z,15.30
2023-05-14T04:01:59.307Z,15.83
2023-05-14T04:04:26.008Z,14.77
2023-05-14T04:06:52.497Z,15.55
2023-05-14T04:09:18.912Z,15.93
2023-05-14T04:11:45.303Z,16.13
2023-05-14T04:14:11.741Z,15.13
2023-05-14T04:16:38.275Z,14.38
2023-05-14T04:19:04.773Z,15.32
2023-05-14T04:21:31.648Z,15.95
2023-05-14T04:23:58.288Z,15.30
2023-05-14T04:26:24.706Z,14.07
2023-05-14T04:28:51.081Z,15.07
2023-05-14T04:31:17.613Z,14.52
2023-05-14T04:33:44.119Z,14.20
2023-05-14T04:36:10.557Z,15.80
2023-05-14T04:38:36.978Z,13.73
2023-05-14T04:41:03.512Z,15.32
2023-05-14T04:43:29.930Z,14.43
2023-05-14T04:45:56.434Z,15.18
2023-05-14T04:48:22.911Z,15.30
2023-05-14T04:50:49.369Z,15.13
2023-05-14T04:53:15.789Z,15.80
2023-05-14T04:55:42.427Z,15.82
2023-05-14T04:58:08.824Z,15.75
2023-05-14T05:00:35.290Z,16.88
2023-05-14T05:03:01.837Z,16.27
2023-05-14T05:05:28.497Z,16.42
2023-05-14T05:07:55.077Z,16.15
2023-05-14T05:10:21.800Z,16.25
2023-05-14T05:12:48.524Z,14.85
2023-05-14T05:15:14.956Z,16.00
2023-05-14T05:17:41.412Z,16.00
2023-05-14T05:20:08.486Z,16.42
2023-05-14T05:22:34.976Z,16.23
2023-05-14T05:25:01.493Z,15.43
2023-05-14T05:27:28.022Z,16.37
2023-05-14T05:29:54.398Z,16.60
2023-05-14T05:32:20.921Z,16.02
2023-05-14T05:34:47.341Z,15.73
2023-05-14T05:37:13.803Z,16.60
2023-05-14T05:39:40.408Z,15.57
2023-05-14T05:42:07.337Z,16.35
2023-05-14T05:44:33.800Z,15.07
2023-05-14T05:47:00.371Z,15.77
2023-05-14T05:49:26.880Z,17.08
2023-05-14T05:51:53.370Z,16.07
2023-05-14T05:54:19.849Z,16.08
2023-05-14T05:56:46.366Z,15.68
2023-05-14T05:59:12.994Z,15.27
2023-05-14T06:01:39.438Z,15.50
2023-05-14T06:04:05.983Z,15.10
2023-05-14T06:06:32.484Z,15.13
2023-05-14T06:08:59.069Z,14.98
2023-05-14T06:11:25.546Z,15.88
2023-05-14T06:13:51.983Z,14.88
2023-05-14T06:16:18.528Z,14.07
2023-05-14T06:18:45.194Z,14.50
2023-05-14T06:21:11.726Z,15.35
2023-05-14T06:23:38.233Z,13.98
2023-05-14T06:26:04.801Z,14.73
2023-05-14T06:28:31.243Z,14.73
2023-05-14T06:30:57.673Z,14.95
2023-05-14T06:33:24.158Z,15.98
2023-05-14T06:35:50.666Z,14.38
2023-05-14T06:38:17.093Z,14.70
2023-05-14T06:40:43.511Z,14.33
2023-05-14T06:43:09.977Z,14.02
2023-05-14T06:45:36.488Z,14.15
2023-05-14T06:48:03.151Z,14.00
2023-05-14T06:50:29.595Z,14.05
2023-05-14T06:52:56.103Z,12.47
2023-05-14T06:55:22.717Z,13.38
2023-05-14T06:57:49.212Z,13.30
2023-05-14T07:00:16.282Z,12.85
2023-05-14T07:02:42.857Z,13.35
2023-05-14T07:05:10.381Z,12.30
2023-05-14T07:07:36.846Z,12.55
2023-05-14T07:10:03.718Z,13.30
2023-05-14T07:12:30.209Z,13.00
2023-05-14T07:14:56.594Z,13.35
2023-05-14T07:17:23.206Z,13.27
2023-05-14T07:19:49.795Z,14.20
2023-05-14T07:22:16.259Z,13.82
2023-05-14T07:24:42.747Z,14.07
2023-05-14T07:27:09.221Z,14.57
2023-05-14T07:29:35.674Z,14.23
2023-05-14T07:32:02.104Z,15.65
2023-05-14T07:34:28.602Z,14.13
2023-05-14T07:36:55.237Z,14.25
2023-05-14T07:39:21.750Z,14.93
2023-05-14T07:41:48.238Z,14.73
2023-05-14T07:44:14.711Z,15.35
2023-05-14T07:46:42.478Z,15.50
2023-05-14T07:49:08.902Z,14.82
2023-05-14T07:51:35.336Z,16.00
2023-05-14T07:54:01.822Z,15.47
2023-05-14T07:56:28.311Z,16.13
2023-05-14T07:58:54.811Z,16.50
2023-05-14T08:01:21.274Z,16.48
2023-05-14T08:03:47.983Z,16.83
2023-05-14T08:06:14.669Z,16.40
2023-05-14T08:08:41.249Z,16.80
2023-05-14T08:11:07.824Z,16.25
2023-05-14T08:13:34.455Z,16.75
2023-05-14T08:16:00.980Z,16.42
2023-05-14T08:18:27.420Z,16.20
2023-05-14T08:20:53.984Z,16.27
2023-05-14T08:23:20.736Z,16.05
2023-05-14T08:25:47.252Z,16.02
2023-05-14T08:28:13.696Z,15.25
2023-05-14T08:30:40.285Z,15.60
2023-05-14T08:33:06.815Z,15.95
2023-05-14T08:35:33.304Z,16.55
2023-05-14T08:37:59.825Z,16.95
2023-05-14T08:40:26.834Z,17.58
2023-05-14T08:42:55.454Z,17.07
2023-05-14T08:45:27.852Z,17.15
2023-05-14T08:47:55.560Z,17.05
2023-05-14T08:50:23.352Z,17.13
2023-05-14T08:52:50.537Z,16.35
2023-05-14T08:55:17.066Z,17.40
2023-05-14T08:57:43.477Z,16.77
2023-05-14T09:00:10.521Z,17.23
2023-05-14T09:02:38.107Z,16.92
2023-05-14T09:05:04.878Z,16.65
2023-05-14T09:07:31.882Z,16.13
2023-05-14T09:09:59.277Z,15.65
2023-05-14T09:12:25.743Z,15.80
2023-05-14T09:14:52.384Z,15.45
2023-05-14T09:17:19.524Z,15.18
2023-05-14T09:19:47.129Z,13.93
2023-05-14T09:22:16.001Z,15.63
2023-05-14T09:24:43.082Z,15.27
2023-05-14T09:27:10.263Z,17.17
2023-05-14T09:29:36.686Z,15.63
2023-05-14T09:32:03.489Z,14.20
2023-05-14T09:34:32.309Z,15.32
2023-05-14T09:37:06.522Z,14.65
2023-05-14T09:39:34.480Z,15.85
2023-05-14T09:42:00.935Z,15.50
2023-05-14T09:44:27.777Z,15.30
2023-05-14T09:46:55.344Z,14.95
2023-05-14T09:49:22.059Z,16.35
2023-05-14T09:51:49.597Z,16.63
2023-05-14T09:54:16.494Z,15.77
2023-05-14T09:56:44.316Z,16.53
2023-05-14T09:59:11.140Z,16.33
2023-05-14T10:01:37.938Z,16.85
2023-05-14T10:04:07.659Z,17.65
2023-05-14T10:06:38.080Z,16.67
2023-05-14T10:09:10.010Z,15.40
2023-05-14T10:11:38.519Z,16.58
2023-05-14T10:14:13.611Z,14.95
2023-05-14T10:16:44.047Z,15.73
2023-05-14T10:19:12.767Z,16.02
2023-05-14T10:21:41.507Z,16.03
2023-05-14T10:24:09.934Z,15.50
2023-05-14T10:26:39.225Z,16.05
2023-05-14T10:29:06.682Z,16.25
2023-05-14T10:31:50.815Z,16.02
2023-05-14T10:34:43.202Z,16.33
2023-05-14T10:37:15.421Z,17.10
2023-05-14T10:39:47.152Z,16.67
2023-05-14T10:42:25.841Z,16.08
2023-05-14T10:45:01.397Z,16.60
2023-05-14T10:47:39.107Z,15.87
2023-05-14T10:50:07.414Z,17.65
2023-05-14T10:52:34.275Z,17.48
2023-05-14T10:55:05.330Z,16.40
2023-05-14T10:57:32.621Z,15.18
2023-05-14T11:00:02.912Z,15.47
2023-05-14T11:02:32.521Z,15.60
2023-05-14T11:05:10.330Z,15.55
2023-05-14T11:07:42.442Z,14.73
2023-05-14T11:10:14.050Z,14.60
2023-05-14T11:12:42.718Z,15.87
2023-05-14T11:15:11.317Z,14.70
2023-05-14T11:17:40.192Z,14.90
2023-05-14T11:20:07.609Z,15.65
2023-05-14T11:22:35.006Z,14.95
2023-05-14T11:25:01.875Z,15.50
2023-05-14T11:27:28.379Z,14.93
2023-05-14T11:29:54.830Z,14.98
2023-05-14T11:32:21.780Z,13.95
2023-05-14T11:34:48.255Z,14.20
2023-05-14T11:37:16.480Z,14.63
2023-05-14T11:39:50.706Z,14.70
2023-05-14T11:42:18.033Z,13.43
2023-05-14T11:44:48.862Z,13.35
2023-05-14T11:47:17.108Z,14.40
2023-05-14T11:49:43.703Z,15.00
2023-05-14T11:52:10.916Z,15.00
2023-05-14T11:54:37.939Z,14.23
2023-05-14T11:57:12.671Z,14.63
2023-05-14T11:59:39.817Z,14.45
2023-05-14T12:02:10.770Z,14.80
2023-05-14T12:04:37.388Z,13.80
2023-05-14T12:07:15.545Z,13.75
2023-05-14T12:09:46.108Z,13.55
2023-05-14T12:12:12.971Z,14.18
2023-05-14T12:14:42.181Z,12.23
2023-05-14T12:17:19.770Z,14.77
2023-05-14T12:19:48.979Z,13.82
2023-05-14T12:22:18.083Z,13.27
2023-05-14T12:24:53.185Z,13.10
2023-05-14T12:27:22.692Z,12.03
2023-05-14T12:29:49.196Z,12.18
2023-05-14T12:32:15.631Z,11.55
2023-05-14T12:34:42.153Z,12.60
2023-05-14T12:37:08.676Z,12.30
2023-05-14T12:39:35.300Z,12.70
2023-05-14T12:42:01.883Z,13.07
2023-05-14T12:44:28.886Z,14.07
2023-05-14T12:46:55.503Z,12.63
2023-05-14T12:49:22.061Z,12.00
2023-05-14T12:51:48.765Z,12.30
2023-05-14T12:54:15.815Z,11.68
2023-05-14T12:56:42.967Z,11.25
2023-05-14T12:59:09.496Z,11.90
2023-05-14T13:01:36.058Z,11.20
2023-05-14T13:04:02.518Z,11.87
2023-05-14T13:06:29.055Z,11.80
2023-05-14T13:08:55.514Z,11.95
2023-05-14T13:11:21.997Z,13.40
2023-05-14T13:13:48.463Z,11.55
2023-05-14T13:16:15.103Z,11.17
2023-05-14T13:18:41.582Z,11.38
2023-05-14T13:21:08.099Z,11.65
2023-05-14T13:23:34.599Z,10.57
2023-05-14T13:26:01.165Z,11.60
2023-05-14T13:28:27.676Z,10.70
2023-05-14T13:31:11.246Z,9.90
2023-05-14T13:33:41.232Z,10.43
2023-05-14T13:36:08.265Z,10.40
2023-05-14T13:38:34.989Z,10.40
2023-05-14T13:41:01.573Z,10.33
2023-05-14T13:43:29.313Z,9.90
2023-05-14T13:45:55.836Z,9.73
2023-05-14T13:48:22.478Z,10.05
2023-05-14T13:50:49.449Z,10.70
2023-05-14T13:53:15.905Z,10.17
2023-05-14T13:55:42.396Z,10.52
2023-05-14T13:58:08.897Z,9.68
2023-05-14T14:00:35.400Z,10.55
2023-05-14T14:03:01.982Z,10.35
2023-05-14T14:05:28.514Z,10.37
2023-05-14T14:08:01.086Z,10.18
2023-05-14T14:10:34.696Z,10.38
2023-05-14T14:13:01.237Z,10.23
2023-05-14T14:15:27.848Z,9.40
2023-05-14T14:17:54.459Z,10.30
2023-05-14T14:20:21.067Z,9.93
2023-05-14T14:22:47.596Z,10.25
2023-05-14T14:25:14.109Z,10.30
2023-05-14T14:27:40.827Z,10.18
2023-05-14T14:30:09.067Z,10.47
2023-05-14T14:32:35.859Z,9.90
2023-05-14T14:35:02.350Z,10.35
2023-05-14T14:37:28.972Z,10.02
2023-05-14T14:39:55.507Z,11.23
2023-05-14T14:42:21.956Z,9.97
2023-05-14T14:44:48.330Z,10.10
2023-05-14T14:47:14.746Z,10.02
2023-05-14T14:49:41.226Z,9.65
2023-05-14T14:52:08.378Z,9.68
2023-05-14T14:54:34.914Z,9.37
2023-05-14T14:57:01.368Z,9.57
2023-05-14T14:59:27.790Z,9.50
2023-05-14T15:01:54.222Z,9.50
2023-05-14T15:04:20.655Z,9.20
2023-05-14T15:06:47.076Z,9.80
2023-05-14T15:09:13.590Z,9.32
2023-05-14T15:11:40.500Z,9.18
2023-05-14T15:14:06.972Z,9.68
2023-05-14T15:16:33.524Z,10.00
2023-05-14T15:19:00.038Z,9.97
2023-05-14T15:21:26.570Z,9.55
2023-05-14T15:23:52.989Z,9.20
2023-05-14T15:26:19.431Z,9.88
2023-05-14T15:28:45.912Z,10.27
2023-05-14T15:31:12.465Z,10.20
2023-05-14T15:33:38.976Z,10.82
2023-05-14T15:36:06.830Z,10.30
2023-05-14T15:38:33.467Z,10.40
2023-05-14T15:41:00.329Z,10.23
2023-05-14T15:43:26.767Z,10.37
2023-05-14T15:45:53.333Z,11.50
2023-05-14T15:48:19.800Z,11.23
2023-05-14T15:50:49.569Z,9.73
2023-05-14T15:53:16.265Z,8.98
2023-05-14T15:55:42.785Z,8.93
2023-05-14T15:58:09.255Z,9.52
2023-05-14T16:00:35.654Z,9.60
2023-05-14T16:03:02.316Z,13.20
2023-05-14T16:05:29.303Z,10.02
2023-05-14T16:07:55.866Z,10.17
2023-05-14T16:10:22.814Z,9.90
2023-05-14T16:12:49.550Z,11.30
2023-05-14T16:15:17.162Z,10.82
2023-05-14T16:17:43.761Z,9.85
2023-05-14T16:20:11.146Z,9.60
2023-05-14T16:22:37.774Z,9.95
2023-05-14T16:25:04.693Z,10.20
2023-05-14T16:27:31.269Z,10.70
2023-05-14T16:29:58.007Z,10.80
2023-05-14T16:32:24.536Z,9.93
2023-05-14T16:34:51.129Z,14.63
2023-05-14T16:37:18.009Z,11.77
2023-05-14T16:39:44.821Z,10.57
2023-05-14T16:42:11.775Z,9.50
2023-05-14T16:44:38.336Z,10.70
2023-05-14T16:47:05.155Z,9.65
2023-05-14T16:49:31.808Z,10.20
2023-05-14T16:51:58.325Z,9.88
2023-05-14T16:54:24.805Z,10.43
2023-05-14T16:56:51.592Z,11.80
2023-05-14T16:59:18.052Z,12.55
2023-05-14T17:01:44.774Z,19.10
2023-05-14T17:04:11.396Z,13.07
2023-05-14T17:06:38.105Z,11.38
2023-05-14T17:09:04.546Z,10.83
2023-05-14T17:11:31.042Z,9.57
2023-05-14T17:13:57.491Z,9.88
2023-05-14T17:16:24.076Z,9.07
2023-05-14T17:18:50.606Z,9.80
2023-05-14T17:21:17.317Z,10.03
2023-05-14T17:23:43.729Z,10.18
2023-05-14T17:26:10.186Z,9.27
2023-05-14T17:28:36.614Z,9.80
2023-05-14T17:31:03.162Z,9.20
2023-05-14T17:33:29.717Z,9.13
2023-05-14T17:35:56.218Z,9.73
2023-05-14T17:38:22.707Z,9.32
2023-05-14T17:40:49.100Z,8.93
2023-05-14T17:43:15.700Z,8.90
2023-05-14T17:45:53.126Z,8.00
2023-05-14T17:48:20.717Z,8.07
2023-05-14T17:50:47.250Z,7.53
2023-05-14T17:53:13.860Z,7.18
2023-05-14T17:55:40.432Z,7.47
2023-05-14T17:58:07.034Z,7.60
2023-05-14T18:00:33.560Z,7.70
2023-05-14T18:03:00.111Z,8.43
2023-05-14T18:05:26.784Z,6.93
2023-05-14T18:07:53.286Z,7.47
2023-05-14T18:10:19.806Z,7.50
2023-05-14T18:12:46.336Z,6.90
2023-05-14T18:15:12.797Z,7.00
2023-05-14T18:17:39.311Z,6.95
2023-05-14T18:20:07.457Z,7.22
2023-05-14T18:22:33.945Z,7.17
2023-05-14T18:25:00.462Z,7.40
2023-05-14T18:27:26.955Z,7.35
2023-05-14T18:29:53.403Z,7.18
2023-05-14T18:32:19.890Z,7.63
2023-05-14T18:34:46.476Z,7.80
2023-05-14T18:37:13.261Z,7.28
2023-05-14T18:39:39.834Z,7.90
2023-05-14T18:42:06.801Z,8.25
2023-05-14T18:44:33.279Z,7.57
2023-05-14T18:46:59.805Z,7.93
2023-05-14T18:49:26.203Z,8.00
2023-05-14T18:51:52.582Z,8.05
2023-05-14T18:54:19.043Z,8.50
2023-05-14T18:56:47.460Z,8.30
2023-05-14T18:59:14.240Z,7.53
2023-05-14T19:01:40.791Z,8.13
2023-05-14T19:04:07.481Z,7.32
2023-05-14T19:06:34.957Z,7.57
2023-05-14T19:09:01.390Z,7.53
2023-05-14T19:11:27.782Z,7.37
2023-05-14T19:13:54.220Z,7.40
2023-05-14T19:16:20.750Z,7.55
2023-05-14T19:18:47.289Z,7.60
2023-05-14T19:21:13.819Z,7.45
2023-05-14T19:23:40.261Z,7.33
2023-05-14T19:26:07.157Z,7.80
2023-05-14T19:28:33.750Z,7.97
2023-05-14T19:31:00.215Z,7.82
2023-05-14T19:33:26.628Z,7.95
2023-05-14T19:35:53.328Z,7.83
2023-05-14T19:38:19.830Z,7.78
2023-05-14T19:40:46.299Z,7.93
2023-05-14T19:43:12.862Z,7.50
2023-05-14T19:45:39.580Z,7.78
2023-05-14T19:48:06.404Z,8.30
2023-05-14T19:50:33.201Z,7.95
2023-05-14T19:53:00.204Z,7.45
2023-05-14T19:55:26.772Z,7.50
2023-05-14T19:57:53.364Z,8.07
2023-05-14T20:00:20.094Z,7.97
2023-05-14T20:02:46.626Z,9.35
2023-05-14T20:05:13.183Z,8.57
2023-05-14T20:07:40.456Z,8.32
2023-05-14T20:10:07.820Z,8.85
2023-05-14T20:12:34.288Z,8.77
2023-05-14T20:15:00.829Z,8.65
2023-05-14T20:17:27.351Z,9.23
2023-05-14T20:19:53.777Z,9.23
2023-05-14T20:22:20.160Z,8.60
2023-05-14T20:24:46.616Z,9.27
2023-05-14T20:27:13.077Z,9.40
2023-05-14T20:29:39.575Z,9.05
2023-05-14T20:32:06.556Z,9.48
2023-05-14T20:34:32.989Z,10.13
2023-05-14T20:36:59.563Z,9.63
2023-05-14T20:39:25.988Z,10.05
2023-05-14T20:41:52.435Z,9.98
2023-05-14T20:44:20.592Z,9.88
2023-05-14T20:46:47.747Z,9.75
2023-05-14T20:49:14.190Z,9.60
2023-05-14T20:51:40.585Z,10.35
2023-05-14T20:54:07.087Z,10.15
2023-05-14T20:56:33.691Z,10.57
2023-05-14T20:59:00.116Z,10.50
2023-05-14T21:01:26.537Z,10.97
2023-05-14T21:03:53.236Z,11.68
2023-05-14T21:06:19.943Z,11.63
2023-05-14T21:08:46.462Z,12.05
2023-05-14T21:11:13.195Z,11.95
2023-05-14T21:13:39.765Z,12.20
2023-05-14T21:16:06.732Z,11.70
2023-05-14T21:18:33.349Z,12.10
2023-05-14T21:20:59.840Z,12.20
2023-05-14T21:23:26.378Z,11.70
2023-05-14T21:25:52.873Z,12.13
2023-05-14T21:28:19.288Z,12.75
2023-05-14T21:30:45.784Z,12.70
2023-05-14T21:33:12.330Z,12.75
2023-05-14T21:35:38.791Z,12.77
2023-05-14T21:38:05.305Z,12.30
2023-05-14T21:40:31.728Z,13.68
2023-05-14T21:42:58.147Z,13.27
2023-05-14T21:45:24.749Z,14.07
2023-05-14T21:47:51.618Z,13.85
2023-05-14T21:50:18.368Z,13.53
2023-05-14T21:52:44.906Z,14.10
2023-05-14T21:55:11.352Z,14.70
2023-05-14T21:57:37.936Z,13.90
2023-05-14T22:00:05.200Z,13.80
2023-05-14T22:02:32.452Z,13.90
2023-05-14T22:04:59.101Z,14.05
2023-05-14T22:07:25.535Z,14.45
2023-05-14T22:09:52.775Z,13.98
2023-05-14T22:12:19.450Z,14.10
2023-05-14T22:14:46.140Z,14.93
2023-05-14T22:17:12.626Z,14.43
2023-05-14T22:19:39.231Z,15.95
2023-05-14T22:22:05.726Z,14.65
2023-05-14T22:24:32.199Z,13.95
2023-05-14T22:26:58.631Z,14.87
2023-05-14T22:29:25.121Z,14.48
2023-05-14T22:31:51.664Z,14.38
2023-05-14T22:34:18.235Z,14.32
2023-05-14T22:36:44.762Z,14.85
2023-05-14T22:39:13.211Z,14.60
2023-05-14T22:41:40.090Z,15.68
2023-05-14T22:44:06.543Z,15.32
2023-05-14T22:46:33.078Z,16.10
2023-05-14T22:48:59.524Z,16.02
2023-05-14T22:51:26.014Z,16.70
2023-05-14T22:53:52.470Z,16.20
2023-05-14T22:56:19.467Z,16.77
2023-05-14T22:58:45.905Z,17.85
2023-05-14T23:01:12.454Z,18.33
2023-05-14T23:03:39.021Z,17.73
2023-05-14T23:06:05.675Z,18.33
2023-05-14T23:08:32.123Z,17.77
2023-05-14T23:10:59.707Z,18.85
2023-05-14T23:13:26.167Z,18.20
2023-05-14T23:15:52.635Z,18.10
2023-05-14T23:18:19.135Z,17.38
2023-05-14T23:20:45.655Z,19.05
2023-05-14T23:23:12.228Z,18.85
2023-05-14T23:25:39.107Z,19.00
2023-05-14T23:28:06.122Z,18.03
2023-05-14T23:30:32.719Z,18.50
2023-05-14T23:32:59.204Z,17.65
2023-05-14T23:35:26.434Z,18.42
2023-05-14T23:37:53.466Z,19.42
2023-05-14T23:40:19.889Z,19.03
2023-05-14T23:42:46.577Z,18.67
2023-05-14T23:45:13.426Z,19.05
2023-05-14T23:47:40.986Z,19.92
2023-05-14T23:50:07.887Z,21.08
2023-05-14T23:52:34.364Z,21.00
2023-05-14T23:55:00.857Z,20.85
2023-05-14T23:57:27.438Z,22.05
2023-05-14T23:59:53.931Z,21.58
